Perrysburg, New York
Current Conditions -  °F | °C
As of 10:53 PM on Wednesday 22 Oct 2014 (Local Time) from KDKK Reporting Station
Overcast Overcast  
Wind Chill: 46°   Ceiling: 2700
Heat Index: 46°   Visibility: 10mi
Dew Point: 43°   Wind: 3mph
Humidity: 89%   Direction: 190°S
Pressure: 30.2"   Gusts: NA
Location:  42.46°N, 79°W
Report Text: KDKK 230253Z AUTO 19003KT 10SM OVC027 08/06 A3020 RMK AO2 SLP229 T00780061 58007
Loading
Personal Weather Stations






























Interactive Weather Map
Tropical Storm Tracking
New forecast layout! Learn more

10-Day Weather Forecast

Advertisements
Track Severe Weather on mobile